sensor_id;sensor_type;location;lat;lon;timestamp;pressure;altitude;pressure_sealevel;temperature;humidity
6204;BME280;3135;42.602;23.468;2022-11-11T00:01:02;94114.34;;;8.56;100.00
6204;BME280;3135;42.602;23.468;2022-11-11T00:03:28;94117.75;;;8.51;100.00
6204;BME280;3135;42.602;23.468;2022-11-11T00:05:54;94103.94;;;8.54;100.00
6204;BME280;3135;42.602;23.468;2022-11-11T00:08:19;94110.41;;;8.58;100.00
6204;BME280;3135;42.602;23.468;2022-11-11T00:10:45;94102.28;;;8.48;100.00
6204;BME280;3135;42.602;23.468;2022-11-11T00:13:10;94108.53;;;8.59;100.00
6204;BME280;3135;42.602;23.468;2022-11-11T00:15:37;94114.06;;;8.52;100.00
6204;BME280;3135;42.602;23.468;2022-11-11T00:18:04;94121.31;;;8.40;100.00
6204;BME280;3135;42.602;23.468;2022-11-11T00:20:48;94114.06;;;8.52;100.00
6204;BME280;3135;42.602;23.468;2022-11-11T00:23:33;94107.09;;;8.51;100.00
6204;BME280;3135;42.602;23.468;2022-11-11T00:26:17;94100.47;;;8.54;100.00
6204;BME280;3135;42.602;23.468;2022-11-11T00:28:42;94109.41;;;8.64;100.00
6204;BME280;3135;42.602;23.468;2022-11-11T00:31:10;94098.63;;;8.54;100.00
6204;BME280;3135;42.602;23.468;2022-11-11T00:33:35;94094.50;;;8.63;100.00
6204;BME280;3135;42.602;23.468;2022-11-11T00:36:01;94115.63;;;8.70;100.00
6204;BME280;3135;42.602;23.468;2022-11-11T00:38:27;94098.69;;;8.59;100.00
6204;BME280;3135;42.602;23.468;2022-11-11T00:41:13;94118.53;;;8.68;100.00
6204;BME280;3135;42.602;23.468;2022-11-11T00:43:39;94079.91;;;8.49;100.00
6204;BME280;3135;42.602;23.468;2022-11-11T00:46:04;94123.47;;;8.77;100.00
6204;BME280;3135;42.602;23.468;2022-11-11T00:48:48;94109.00;;;8.73;100.00
6204;BME280;3135;42.602;23.468;2022-11-11T00:51:32;94117.41;;;8.81;100.00
6204;BME280;3135;42.602;23.468;2022-11-11T00:53:58;94120.38;;;8.85;100.00
6204;BME280;3135;42.602;23.468;2022-11-11T00:56:24;94107.72;;;8.75;100.00
6204;BME280;3135;42.602;23.468;2022-11-11T00:58:49;94117.63;;;8.80;100.00
6204;BME280;3135;42.602;23.468;2022-11-11T01:01:15;94118.19;;;8.82;100.00
6204;BME280;3135;42.602;23.468;2022-11-11T01:03:41;94105.06;;;8.58;100.00
6204;BME280;3135;42.602;23.468;2022-11-11T01:06:09;94118.94;;;8.77;100.00
6204;BME280;3135;42.602;23.468;2022-11-11T01:08:35;94102.22;;;8.82;100.00
6204;BME280;3135;42.602;23.468;2022-11-11T01:11:01;94091.97;;;8.74;100.00
6204;BME280;3135;42.602;23.468;2022-11-11T01:13:29;94099.78;;;8.80;100.00
6204;BME280;3135;42.602;23.468;2022-11-11T01:16:06;94092.94;;;8.67;100.00
6204;BME280;3135;42.602;23.468;2022-11-11T01:18:32;94103.75;;;8.61;100.00
6204;BME280;3135;42.602;23.468;2022-11-11T01:21:07;94115.84;;;8.85;100.00
6204;BME280;3135;42.602;23.468;2022-11-11T01:23:35;94111.94;;;8.71;100.00
6204;BME280;3135;42.602;23.468;2022-11-11T01:28:36;94093.09;;;8.61;100.00
6204;BME280;3135;42.602;23.468;2022-11-11T01:31:07;94115.59;;;8.87;100.00
6204;BME280;3135;42.602;23.468;2022-11-11T01:33:32;94106.91;;;8.75;100.00
6204;BME280;3135;42.602;23.468;2022-11-11T01:36:10;94119.47;;;8.79;100.00
6204;BME280;3135;42.602;23.468;2022-11-11T01:38:37;94096.34;;;8.63;100.00
6204;BME280;3135;42.602;23.468;2022-11-11T01:41:04;94099.56;;;8.65;100.00
6204;BME280;3135;42.602;23.468;2022-11-11T01:43:50;94112.63;;;8.83;100.00
6204;BME280;3135;42.602;23.468;2022-11-11T01:46:32;94093.50;;;8.69;100.00
6204;BME280;3135;42.602;23.468;2022-11-11T01:52:09;94099.88;;;8.85;100.00
6204;BME280;3135;42.602;23.468;2022-11-11T01:54:52;94104.00;;;8.76;100.00
6204;BME280;3135;42.602;23.468;2022-11-11T01:57:26;94112.88;;;8.82;100.00
6204;BME280;3135;42.602;23.468;2022-11-11T01:59:57;94104.16;;;8.69;100.00
6204;BME280;3135;42.602;23.468;2022-11-11T02:05:06;94117.47;;;8.69;100.00
6204;BME280;3135;42.602;23.468;2022-11-11T02:07:52;94101.94;;;8.61;100.00
6204;BME280;3135;42.602;23.468;2022-11-11T02:10:23;94115.41;;;8.72;100.00
6204;BME280;3135;42.602;23.468;2022-11-11T02:12:50;94106.19;;;8.62;100.00
6204;BME280;3135;42.602;23.468;2022-11-11T02:15:35;94115.72;;;8.58;100.00
6204;BME280;3135;42.602;23.468;2022-11-11T02:18:01;94108.81;;;8.57;100.00
6204;BME280;3135;42.602;23.468;2022-11-11T02:20:32;94117.41;;;8.64;100.00
6204;BME280;3135;42.602;23.468;2022-11-11T02:23:31;94122.25;;;8.67;100.00
6204;BME280;3135;42.602;23.468;2022-11-11T02:26:01;94107.75;;;8.58;100.00
6204;BME280;3135;42.602;23.468;2022-11-11T02:28:27;94117.53;;;8.53;100.00
6204;BME280;3135;42.602;23.468;2022-11-11T02:30:53;94122.06;;;8.52;100.00
6204;BME280;3135;42.602;23.468;2022-11-11T02:33:18;94114.19;;;8.45;100.00
6204;BME280;3135;42.602;23.468;2022-11-11T02:35:46;94131.56;;;8.48;100.00
6204;BME280;3135;42.602;23.468;2022-11-11T02:38:20;94134.56;;;8.52;100.00
6204;BME280;3135;42.602;23.468;2022-11-11T02:40:45;94129.38;;;8.45;100.00
6204;BME280;3135;42.602;23.468;2022-11-11T02:43:30;94132.13;;;8.50;100.00
6204;BME280;3135;42.602;23.468;2022-11-11T02:45:57;94127.44;;;8.57;100.00
6204;BME280;3135;42.602;23.468;2022-11-11T02:48:23;94126.38;;;8.41;100.00
6204;BME280;3135;42.602;23.468;2022-11-11T02:50:49;94122.59;;;8.37;100.00
6204;BME280;3135;42.602;23.468;2022-11-11T02:53:15;94121.56;;;8.38;100.00
6204;BME280;3135;42.602;23.468;2022-11-11T02:55:40;94113.69;;;8.32;100.00
6204;BME280;3135;42.602;23.468;2022-11-11T02:58:06;94127.59;;;8.34;100.00
6204;BME280;3135;42.602;23.468;2022-11-11T03:00:31;94123.06;;;8.17;100.00
6204;BME280;3135;42.602;23.468;2022-11-11T03:02:57;94125.72;;;8.34;100.00
6204;BME280;3135;42.602;23.468;2022-11-11T03:05:22;94129.59;;;8.27;100.00
6204;BME280;3135;42.602;23.468;2022-11-11T03:07:48;94126.31;;;8.36;100.00
6204;BME280;3135;42.602;23.468;2022-11-11T03:10:13;94126.72;;;8.45;100.00
6204;BME280;3135;42.602;23.468;2022-11-11T03:12:39;94118.19;;;8.43;100.00
6204;BME280;3135;42.602;23.468;2022-11-11T03:15:05;94125.47;;;8.36;100.00
6204;BME280;3135;42.602;23.468;2022-11-11T03:17:30;94121.00;;;8.53;100.00
6204;BME280;3135;42.602;23.468;2022-11-11T03:25:25;94119.84;;;8.49;100.00
6204;BME280;3135;42.602;23.468;2022-11-11T03:28:13;94130.84;;;8.53;100.00
6204;BME280;3135;42.602;23.468;2022-11-11T03:30:41;94122.84;;;8.53;100.00
6204;BME280;3135;42.602;23.468;2022-11-11T03:33:07;94119.69;;;8.56;100.00
6204;BME280;3135;42.602;23.468;2022-11-11T03:35:33;94129.69;;;8.65;100.00
6204;BME280;3135;42.602;23.468;2022-11-11T03:38:00;94128.47;;;8.73;100.00
6204;BME280;3135;42.602;23.468;2022-11-11T03:40:49;94113.69;;;8.65;100.00
6204;BME280;3135;42.602;23.468;2022-11-11T03:43:17;94130.94;;;8.80;100.00
6204;BME280;3135;42.602;23.468;2022-11-11T03:45:44;94122.00;;;8.86;100.00
6204;BME280;3135;42.602;23.468;2022-11-11T03:48:10;94110.09;;;8.93;100.00
6204;BME280;3135;42.602;23.468;2022-11-11T03:50:36;94104.88;;;8.82;100.00
6204;BME280;3135;42.602;23.468;2022-11-11T03:53:01;94124.66;;;8.86;100.00
6204;BME280;3135;42.602;23.468;2022-11-11T03:55:27;94130.00;;;8.86;100.00
6204;BME280;3135;42.602;23.468;2022-11-11T03:57:53;94130.69;;;8.98;100.00
6204;BME280;3135;42.602;23.468;2022-11-11T04:00:25;94124.41;;;8.87;100.00
6204;BME280;3135;42.602;23.468;2022-11-11T04:02:51;94134.66;;;8.95;100.00
6204;BME280;3135;42.602;23.468;2022-11-11T04:05:35;94138.19;;;9.01;100.00
6204;BME280;3135;42.602;23.468;2022-11-11T04:08:20;94136.66;;;9.05;100.00
6204;BME280;3135;42.602;23.468;2022-11-11T04:11:08;94117.34;;;8.98;100.00
6204;BME280;3135;42.602;23.468;2022-11-11T04:13:36;94124.03;;;9.17;100.00
6204;BME280;3135;42.602;23.468;2022-11-11T04:16:20;94119.41;;;8.91;100.00
6204;BME280;3135;42.602;23.468;2022-11-11T04:18:46;94132.25;;;8.94;100.00
6204;BME280;3135;42.602;23.468;2022-11-11T04:21:30;94108.78;;;8.96;100.00
6204;BME280;3135;42.602;23.468;2022-11-11T04:24:18;94131.50;;;9.20;100.00
6204;BME280;3135;42.602;23.468;2022-11-11T04:27:11;94118.72;;;9.01;100.00
6204;BME280;3135;42.602;23.468;2022-11-11T04:29:37;94126.25;;;9.04;100.00
6204;BME280;3135;42.602;23.468;2022-11-11T04:32:10;94126.97;;;8.99;100.00
6204;BME280;3135;42.602;23.468;2022-11-11T04:35:00;94123.88;;;9.07;100.00
6204;BME280;3135;42.602;23.468;2022-11-11T04:37:27;94127.66;;;9.11;100.00
6204;BME280;3135;42.602;23.468;2022-11-11T04:39:54;94121.06;;;8.97;100.00
6204;BME280;3135;42.602;23.468;2022-11-11T04:42:38;94133.00;;;9.11;100.00
6204;BME280;3135;42.602;23.468;2022-11-11T04:45:04;94133.59;;;8.96;100.00
6204;BME280;3135;42.602;23.468;2022-11-11T04:47:53;94142.53;;;9.07;100.00
6204;BME280;3135;42.602;23.468;2022-11-11T04:50:20;94127.91;;;9.10;100.00
6204;BME280;3135;42.602;23.468;2022-11-11T04:52:46;94136.22;;;9.13;100.00
6204;BME280;3135;42.602;23.468;2022-11-11T04:55:12;94132.94;;;9.06;100.00
6204;BME280;3135;42.602;23.468;2022-11-11T04:57:56;94132.13;;;9.06;100.00
6204;BME280;3135;42.602;23.468;2022-11-11T05:00:21;94125.41;;;9.03;100.00
6204;BME280;3135;42.602;23.468;2022-11-11T05:02:47;94129.38;;;9.01;100.00
6204;BME280;3135;42.602;23.468;2022-11-11T05:05:31;94144.81;;;8.99;100.00
6204;BME280;3135;42.602;23.468;2022-11-11T05:08:15;94137.91;;;8.81;100.00
6204;BME280;3135;42.602;23.468;2022-11-11T05:11:20;94148.00;;;8.95;100.00
6204;BME280;3135;42.602;23.468;2022-11-11T05:13:45;94133.91;;;9.00;100.00
6204;BME280;3135;42.602;23.468;2022-11-11T05:16:55;94135.56;;;9.23;100.00
6204;BME280;3135;42.602;23.468;2022-11-11T05:19:39;94136.34;;;9.24;100.00
6204;BME280;3135;42.602;23.468;2022-11-11T05:24:52;94134.97;;;9.21;100.00
6204;BME280;3135;42.602;23.468;2022-11-11T05:27:36;94148.28;;;9.38;100.00
6204;BME280;3135;42.602;23.468;2022-11-11T05:30:03;94159.88;;;9.48;100.00
6204;BME280;3135;42.602;23.468;2022-11-11T05:32:29;94157.56;;;9.35;100.00
6204;BME280;3135;42.602;23.468;2022-11-11T05:34:54;94150.81;;;9.28;100.00
6204;BME280;3135;42.602;23.468;2022-11-11T05:37:20;94149.81;;;9.34;100.00
6204;BME280;3135;42.602;23.468;2022-11-11T05:39:45;94159.78;;;9.21;100.00
6204;BME280;3135;42.602;23.468;2022-11-11T05:42:11;94149.69;;;9.24;100.00
6204;BME280;3135;42.602;23.468;2022-11-11T05:44:37;94172.38;;;9.26;100.00
6204;BME280;3135;42.602;23.468;2022-11-11T05:47:03;94166.50;;;9.24;100.00
6204;BME280;3135;42.602;23.468;2022-11-11T05:49:28;94167.25;;;9.19;100.00
6204;BME280;3135;42.602;23.468;2022-11-11T05:51:54;94179.25;;;9.22;100.00
6204;BME280;3135;42.602;23.468;2022-11-11T05:54:21;94178.00;;;9.08;100.00
6204;BME280;3135;42.602;23.468;2022-11-11T05:56:47;94183.19;;;8.98;100.00
6204;BME280;3135;42.602;23.468;2022-11-11T05:59:12;94191.59;;;9.06;100.00
6204;BME280;3135;42.602;23.468;2022-11-11T06:01:38;94201.06;;;8.97;100.00
6204;BME280;3135;42.602;23.468;2022-11-11T06:04:04;94194.84;;;9.08;100.00
6204;BME280;3135;42.602;23.468;2022-11-11T06:06:30;94200.97;;;8.92;100.00
6204;BME280;3135;42.602;23.468;2022-11-11T06:08:55;94213.84;;;8.95;100.00
6204;BME280;3135;42.602;23.468;2022-11-11T06:11:21;94226.91;;;8.96;100.00
6204;BME280;3135;42.602;23.468;2022-11-11T06:13:47;94219.94;;;9.12;100.00
6204;BME280;3135;42.602;23.468;2022-11-11T06:16:13;94216.06;;;9.03;100.00
6204;BME280;3135;42.602;23.468;2022-11-11T06:18:38;94219.47;;;9.15;100.00
6204;BME280;3135;42.602;23.468;2022-11-11T06:21:04;94222.91;;;8.94;100.00
6204;BME280;3135;42.602;23.468;2022-11-11T06:23:30;94224.00;;;8.98;100.00
6204;BME280;3135;42.602;23.468;2022-11-11T06:25:56;94227.31;;;9.05;100.00
6204;BME280;3135;42.602;23.468;2022-11-11T06:28:52;94232.56;;;9.00;100.00
6204;BME280;3135;42.602;23.468;2022-11-11T06:31:23;94244.38;;;9.04;100.00
6204;BME280;3135;42.602;23.468;2022-11-11T06:33:48;94241.63;;;8.99;100.00
6204;BME280;3135;42.602;23.468;2022-11-11T06:36:17;94259.25;;;9.00;100.00
6204;BME280;3135;42.602;23.468;2022-11-11T06:38:43;94238.31;;;8.92;100.00
6204;BME280;3135;42.602;23.468;2022-11-11T06:41:09;94230.97;;;8.99;100.00
6204;BME280;3135;42.602;23.468;2022-11-11T06:43:40;94231.66;;;9.11;100.00
6204;BME280;3135;42.602;23.468;2022-11-11T06:46:06;94242.41;;;9.16;100.00
6204;BME280;3135;42.602;23.468;2022-11-11T06:48:32;94250.34;;;9.11;100.00
6204;BME280;3135;42.602;23.468;2022-11-11T06:51:02;94264.25;;;9.13;100.00
6204;BME280;3135;42.602;23.468;2022-11-11T06:53:28;94255.41;;;9.30;100.00
6204;BME280;3135;42.602;23.468;2022-11-11T06:55:54;94244.34;;;9.21;100.00
6204;BME280;3135;42.602;23.468;2022-11-11T06:58:20;94255.59;;;9.23;100.00
6204;BME280;3135;42.602;23.468;2022-11-11T07:00:47;94245.66;;;9.18;100.00
6204;BME280;3135;42.602;23.468;2022-11-11T07:03:15;94256.53;;;9.17;100.00
6204;BME280;3135;42.602;23.468;2022-11-11T07:05:42;94237.53;;;9.30;100.00
6204;BME280;3135;42.602;23.468;2022-11-11T07:08:10;94232.63;;;9.61;100.00
6204;BME280;3135;42.602;23.468;2022-11-11T07:10:37;94227.09;;;9.67;100.00
6204;BME280;3135;42.602;23.468;2022-11-11T07:13:04;94227.44;;;9.54;100.00
6204;BME280;3135;42.602;23.468;2022-11-11T07:15:30;94227.78;;;9.58;100.00
6204;BME280;3135;42.602;23.468;2022-11-11T07:17:56;94231.81;;;9.60;100.00
6204;BME280;3135;42.602;23.468;2022-11-11T07:20:21;94228.28;;;9.77;100.00
6204;BME280;3135;42.602;23.468;2022-11-11T07:22:47;94240.56;;;9.78;100.00
6204;BME280;3135;42.602;23.468;2022-11-11T07:25:13;94242.03;;;9.46;100.00
6204;BME280;3135;42.602;23.468;2022-11-11T07:27:38;94255.06;;;9.43;100.00
6204;BME280;3135;42.602;23.468;2022-11-11T07:30:05;94245.22;;;9.27;100.00
6204;BME280;3135;42.602;23.468;2022-11-11T07:32:31;94249.94;;;9.19;100.00
6204;BME280;3135;42.602;23.468;2022-11-11T07:34:57;94259.59;;;9.26;100.00
6204;BME280;3135;42.602;23.468;2022-11-11T07:37:22;94257.59;;;9.33;100.00
6204;BME280;3135;42.602;23.468;2022-11-11T07:39:48;94257.94;;;9.19;100.00
6204;BME280;3135;42.602;23.468;2022-11-11T07:42:13;94252.13;;;9.23;100.00
6204;BME280;3135;42.602;23.468;2022-11-11T07:44:39;94262.06;;;9.27;100.00
6204;BME280;3135;42.602;23.468;2022-11-11T07:47:05;94273.78;;;9.09;100.00
6204;BME280;3135;42.602;23.468;2022-11-11T07:49:31;94267.31;;;9.05;100.00
6204;BME280;3135;42.602;23.468;2022-11-11T07:51:56;94278.38;;;8.97;100.00
6204;BME280;3135;42.602;23.468;2022-11-11T07:54:21;94280.56;;;9.17;100.00
6204;BME280;3135;42.602;23.468;2022-11-11T07:56:47;94272.25;;;9.13;100.00
6204;BME280;3135;42.602;23.468;2022-11-11T07:59:12;94289.06;;;9.14;100.00
6204;BME280;3135;42.602;23.468;2022-11-11T08:01:38;94274.34;;;8.94;100.00
6204;BME280;3135;42.602;23.468;2022-11-11T08:04:03;94257.47;;;8.72;100.00
6204;BME280;3135;42.602;23.468;2022-11-11T08:06:29;94253.00;;;8.78;100.00
6204;BME280;3135;42.602;23.468;2022-11-11T08:08:54;94256.88;;;8.70;100.00
6204;BME280;3135;42.602;23.468;2022-11-11T08:11:20;94246.94;;;8.65;100.00
6204;BME280;3135;42.602;23.468;2022-11-11T08:14:05;94276.13;;;8.72;100.00
6204;BME280;3135;42.602;23.468;2022-11-11T08:16:31;94284.28;;;8.82;100.00
6204;BME280;3135;42.602;23.468;2022-11-11T08:18:56;94273.69;;;8.70;100.00
6204;BME280;3135;42.602;23.468;2022-11-11T08:21:23;94276.53;;;8.81;100.00
6204;BME280;3135;42.602;23.468;2022-11-11T08:23:49;94268.13;;;8.72;100.00
6204;BME280;3135;42.602;23.468;2022-11-11T08:26:16;94313.94;;;8.86;100.00
6204;BME280;3135;42.602;23.468;2022-11-11T08:28:43;94272.28;;;8.51;100.00
6204;BME280;3135;42.602;23.468;2022-11-11T08:31:08;94299.06;;;8.73;100.00
6204;BME280;3135;42.602;23.468;2022-11-11T08:33:34;94290.56;;;8.59;100.00
6204;BME280;3135;42.602;23.468;2022-11-11T08:36:01;94307.75;;;8.68;100.00
6204;BME280;3135;42.602;23.468;2022-11-11T08:38:27;94307.03;;;8.56;100.00
6204;BME280;3135;42.602;23.468;2022-11-11T08:40:52;94299.78;;;8.68;100.00
6204;BME280;3135;42.602;23.468;2022-11-11T08:43:19;94300.75;;;8.62;100.00
6204;BME280;3135;42.602;23.468;2022-11-11T08:45:45;94281.44;;;8.72;100.00
6204;BME280;3135;42.602;23.468;2022-11-11T08:48:10;94284.13;;;8.72;100.00
6204;BME280;3135;42.602;23.468;2022-11-11T08:50:37;94313.75;;;8.92;100.00
6204;BME280;3135;42.602;23.468;2022-11-11T08:53:05;94298.56;;;8.93;100.00
6204;BME280;3135;42.602;23.468;2022-11-11T08:55:30;94291.97;;;8.95;100.00
6204;BME280;3135;42.602;23.468;2022-11-11T08:57:57;94309.66;;;9.18;100.00
6204;BME280;3135;42.602;23.468;2022-11-11T09:00:23;94316.13;;;9.23;100.00
6204;BME280;3135;42.602;23.468;2022-11-11T09:02:48;94306.41;;;9.16;100.00
6204;BME280;3135;42.602;23.468;2022-11-11T09:05:14;94299.28;;;9.22;100.00
6204;BME280;3135;42.602;23.468;2022-11-11T09:07:39;94276.84;;;9.18;100.00
6204;BME280;3135;42.602;23.468;2022-11-11T09:10:05;94272.94;;;9.26;100.00
6204;BME280;3135;42.602;23.468;2022-11-11T09:12:31;94289.69;;;9.38;100.00
6204;BME280;3135;42.602;23.468;2022-11-11T09:14:56;94294.28;;;9.42;100.00
6204;BME280;3135;42.602;23.468;2022-11-11T09:17:21;94288.75;;;9.66;100.00
6204;BME280;3135;42.602;23.468;2022-11-11T09:19:47;94293.41;;;9.76;100.00
6204;BME280;3135;42.602;23.468;2022-11-11T09:22:12;94246.06;;;9.49;100.00
6204;BME280;3135;42.602;23.468;2022-11-11T09:24:38;94296.13;;;9.81;100.00
6204;BME280;3135;42.602;23.468;2022-11-11T09:27:03;94287.31;;;9.80;100.00
6204;BME280;3135;42.602;23.468;2022-11-11T09:29:29;94281.25;;;9.85;100.00
6204;BME280;3135;42.602;23.468;2022-11-11T09:31:54;94286.66;;;9.90;100.00
6204;BME280;3135;42.602;23.468;2022-11-11T09:34:19;94254.53;;;9.85;100.00
6204;BME280;3135;42.602;23.468;2022-11-11T09:36:45;94282.38;;;9.89;100.00
6204;BME280;3135;42.602;23.468;2022-11-11T09:39:10;94239.66;;;9.50;100.00
6204;BME280;3135;42.602;23.468;2022-11-11T09:49:55;94287.47;;;10.12;100.00
6204;BME280;3135;42.602;23.468;2022-11-11T09:54:57;94254.72;;;10.00;100.00
6204;BME280;3135;42.602;23.468;2022-11-11T09:57:37;94277.31;;;10.14;100.00
6204;BME280;3135;42.602;23.468;2022-11-11T10:00:13;94273.09;;;10.18;100.00
6204;BME280;3135;42.602;23.468;2022-11-11T10:02:46;94265.03;;;9.91;100.00
6204;BME280;3135;42.602;23.468;2022-11-11T10:05:18;94265.28;;;10.12;100.00
6204;BME280;3135;42.602;23.468;2022-11-11T10:08:00;94244.03;;;10.00;100.00
6204;BME280;3135;42.602;23.468;2022-11-11T10:10:46;94243.50;;;9.98;100.00
6204;BME280;3135;42.602;23.468;2022-11-11T10:13:15;94271.53;;;10.22;100.00
6204;BME280;3135;42.602;23.468;2022-11-11T10:16:39;94238.91;;;10.20;100.00
6204;BME280;3135;42.602;23.468;2022-11-11T10:21:36;94257.88;;;10.19;100.00
6204;BME280;3135;42.602;23.468;2022-11-11T10:24:11;94273.97;;;10.24;100.00
6204;BME280;3135;42.602;23.468;2022-11-11T10:26:40;94269.63;;;10.18;100.00
6204;BME280;3135;42.602;23.468;2022-11-11T10:29:25;94260.16;;;10.10;100.00
6204;BME280;3135;42.602;23.468;2022-11-11T10:32:02;94248.94;;;10.08;100.00
6204;BME280;3135;42.602;23.468;2022-11-11T10:34:33;94253.75;;;10.11;100.00
6204;BME280;3135;42.602;23.468;2022-11-11T10:37:00;94235.72;;;9.96;100.00
6204;BME280;3135;42.602;23.468;2022-11-11T10:39:57;94263.53;;;10.01;100.00
6204;BME280;3135;42.602;23.468;2022-11-11T10:42:24;94239.25;;;10.02;100.00
6204;BME280;3135;42.602;23.468;2022-11-11T10:44:55;94245.03;;;9.94;100.00
6204;BME280;3135;42.602;23.468;2022-11-11T10:47:38;94248.94;;;10.08;100.00
6204;BME280;3135;42.602;23.468;2022-11-11T10:50:21;94238.75;;;10.05;100.00
6204;BME280;3135;42.602;23.468;2022-11-11T10:52:59;94237.06;;;10.21;100.00
6204;BME280;3135;42.602;23.468;2022-11-11T10:55:43;94247.09;;;10.31;100.00
6204;BME280;3135;42.602;23.468;2022-11-11T10:58:15;94260.03;;;10.44;100.00
6204;BME280;3135;42.602;23.468;2022-11-11T11:00:45;94230.34;;;10.18;100.00
6204;BME280;3135;42.602;23.468;2022-11-11T11:03:17;94258.38;;;10.38;100.00
6204;BME280;3135;42.602;23.468;2022-11-11T11:05:58;94244.19;;;10.15;100.00
6204;BME280;3135;42.602;23.468;2022-11-11T11:08:33;94223.91;;;9.92;100.00
6204;BME280;3135;42.602;23.468;2022-11-11T11:11:06;94251.19;;;10.16;100.00
6204;BME280;3135;42.602;23.468;2022-11-11T11:13:42;94233.09;;;10.02;100.00
6204;BME280;3135;42.602;23.468;2022-11-11T11:16:19;94241.69;;;10.04;100.00
6204;BME280;3135;42.602;23.468;2022-11-11T11:21:55;94247.66;;;10.16;100.00
6204;BME280;3135;42.602;23.468;2022-11-11T11:24:32;94247.13;;;10.14;100.00
6204;BME280;3135;42.602;23.468;2022-11-11T11:27:03;94237.81;;;10.16;100.00
6204;BME280;3135;42.602;23.468;2022-11-11T11:29:38;94228.97;;;10.16;100.00
6204;BME280;3135;42.602;23.468;2022-11-11T11:34:46;94240.97;;;10.13;100.00
6204;BME280;3135;42.602;23.468;2022-11-11T11:37:12;94237.56;;;9.96;100.00
6204;BME280;3135;42.602;23.468;2022-11-11T11:39:39;94240.13;;;10.08;100.00
6204;BME280;3135;42.602;23.468;2022-11-11T11:42:05;94238.19;;;10.25;100.00
6204;BME280;3135;42.602;23.468;2022-11-11T11:44:32;94250.25;;;10.28;100.00
6204;BME280;3135;42.602;23.468;2022-11-11T11:52:42;94235.50;;;10.25;100.00
6204;BME280;3135;42.602;23.468;2022-11-11T12:05:39;94229.47;;;10.35;100.00
6204;BME280;3135;42.602;23.468;2022-11-11T12:17:29;94229.41;;;10.30;100.00
6204;BME280;3135;42.602;23.468;2022-11-11T12:20:13;94221.44;;;10.35;100.00
6204;BME280;3135;42.602;23.468;2022-11-11T12:25:31;94224.38;;;10.60;100.00
6204;BME280;3135;42.602;23.468;2022-11-11T12:30:39;94214.47;;;10.61;100.00
6204;BME280;3135;42.602;23.468;2022-11-11T12:36:10;94215.25;;;10.56;100.00
6204;BME280;3135;42.602;23.468;2022-11-11T12:44:34;94207.38;;;10.77;100.00
6204;BME280;3135;42.602;23.468;2022-11-11T12:50:02;94192.25;;;10.55;100.00
6204;BME280;3135;42.602;23.468;2022-11-11T12:55:23;94202.84;;;10.77;100.00
6204;BME280;3135;42.602;23.468;2022-11-11T13:00:21;94206.41;;;10.88;100.00
6204;BME280;3135;42.602;23.468;2022-11-11T13:06:09;94196.31;;;11.00;100.00
6204;BME280;3135;42.602;23.468;2022-11-11T13:08:49;94206.97;;;10.90;100.00
6204;BME280;3135;42.602;23.468;2022-11-11T13:14:17;94210.28;;;11.02;100.00
6204;BME280;3135;42.602;23.468;2022-11-11T13:16:54;94221.38;;;10.84;100.00
6204;BME280;3135;42.602;23.468;2022-11-11T13:19:35;94209.25;;;10.76;100.00
6204;BME280;3135;42.602;23.468;2022-11-11T13:22:24;94222.91;;;10.74;100.00
6204;BME280;3135;42.602;23.468;2022-11-11T13:24:50;94219.66;;;10.72;100.00
6204;BME280;3135;42.602;23.468;2022-11-11T13:30:13;94216.06;;;10.89;100.00
6204;BME280;3135;42.602;23.468;2022-11-11T13:35:41;94214.53;;;10.66;100.00
6204;BME280;3135;42.602;23.468;2022-11-11T13:38:23;94208.88;;;10.62;100.00
6204;BME280;3135;42.602;23.468;2022-11-11T13:40:51;94209.34;;;10.54;100.00
6204;BME280;3135;42.602;23.468;2022-11-11T13:43:42;94221.69;;;10.60;100.00
6204;BME280;3135;42.602;23.468;2022-11-11T13:46:39;94222.28;;;10.67;100.00
6204;BME280;3135;42.602;23.468;2022-11-11T13:49:09;94209.09;;;10.56;100.00
6204;BME280;3135;42.602;23.468;2022-11-11T13:51:45;94216.34;;;10.60;100.00
6204;BME280;3135;42.602;23.468;2022-11-11T13:54:33;94204.97;;;10.43;100.00
6204;BME280;3135;42.602;23.468;2022-11-11T13:57:05;94217.53;;;10.42;100.00
6204;BME280;3135;42.602;23.468;2022-11-11T13:59:36;94220.28;;;10.53;100.00
6204;BME280;3135;42.602;23.468;2022-11-11T14:02:30;94223.22;;;10.51;100.00
6204;BME280;3135;42.602;23.468;2022-11-11T14:07:55;94217.81;;;10.46;100.00
6204;BME280;3135;42.602;23.468;2022-11-11T14:12:51;94235.91;;;10.39;100.00
6204;BME280;3135;42.602;23.468;2022-11-11T14:15:43;94230.63;;;10.44;100.00
6204;BME280;3135;42.602;23.468;2022-11-11T14:20:45;94218.63;;;10.46;100.00
6204;BME280;3135;42.602;23.468;2022-11-11T14:26:28;94222.28;;;10.35;100.00
6204;BME280;3135;42.602;23.468;2022-11-11T14:28:31;94239.72;;;10.43;100.00
6204;BME280;3135;42.602;23.468;2022-11-11T14:33:51;94240.91;;;10.30;100.00
6204;BME280;3135;42.602;23.468;2022-11-11T14:36:48;94245.31;;;10.19;100.00
6204;BME280;3135;42.602;23.468;2022-11-11T14:39:40;94242.59;;;10.36;100.00
6204;BME280;3135;42.602;23.468;2022-11-11T14:45:00;94245.50;;;10.35;100.00
6204;BME280;3135;42.602;23.468;2022-11-11T14:47:36;94235.38;;;10.37;100.00
6204;BME280;3135;42.602;23.468;2022-11-11T14:53:07;94243.56;;;10.30;100.00
6204;BME280;3135;42.602;23.468;2022-11-11T14:55:35;94257.69;;;10.26;100.00
6204;BME280;3135;42.602;23.468;2022-11-11T14:58:11;94257.13;;;10.23;100.00
6204;BME280;3135;42.602;23.468;2022-11-11T15:00:51;94239.13;;;9.92;100.00
6204;BME280;3135;42.602;23.468;2022-11-11T15:03:36;94241.03;;;9.96;100.00
6204;BME280;3135;42.602;23.468;2022-11-11T15:06:09;94252.72;;;10.12;100.00
6204;BME280;3135;42.602;23.468;2022-11-11T15:16:54;94263.53;;;10.01;100.00
6204;BME280;3135;42.602;23.468;2022-11-11T15:25:25;94257.00;;;10.13;100.00
6204;BME280;3135;42.602;23.468;2022-11-11T15:27:59;94241.41;;;9.83;100.00
6204;BME280;3135;42.602;23.468;2022-11-11T15:39:15;94246.69;;;10.00;100.00
6204;BME280;3135;42.602;23.468;2022-11-11T15:41:42;94246.53;;;9.85;100.00
6204;BME280;3135;42.602;23.468;2022-11-11T15:46:40;94265.03;;;10.13;100.00
6204;BME280;3135;42.602;23.468;2022-11-11T15:49:37;94254.59;;;10.12;100.00